sensor_id;sensor_type;location;lat;lon;timestamp;pressure;altitude;pressure_sealevel;temperature;humidity
61292;BME280;47165;42.664;23.368;2023-06-19T00:01:59;95081.38;;;21.07;54.31
61292;BME280;47165;42.664;23.368;2023-06-19T00:04:24;95086.03;;;20.95;54.26
61292;BME280;47165;42.664;23.368;2023-06-19T00:06:52;95089.09;;;21.00;54.06
61292;BME280;47165;42.664;23.368;2023-06-19T00:11:42;95058.13;;;20.91;53.69
61292;BME280;47165;42.664;23.368;2023-06-19T00:14:08;95079.31;;;21.01;53.91
61292;BME280;47165;42.664;23.368;2023-06-19T00:16:33;95078.56;;;21.08;53.78
61292;BME280;47165;42.664;23.368;2023-06-19T00:18:59;95077.13;;;20.96;53.80
61292;BME280;47165;42.664;23.368;2023-06-19T00:21:25;95081.16;;;20.73;54.09
61292;BME280;47165;42.664;23.368;2023-06-19T00:23:51;95074.28;;;20.80;53.86
61292;BME280;47165;42.664;23.368;2023-06-19T00:28:43;95067.50;;;20.67;54.35
61292;BME280;47165;42.664;23.368;2023-06-19T00:31:11;95065.47;;;20.42;54.87
61292;BME280;47165;42.664;23.368;2023-06-19T00:33:39;95066.69;;;20.57;54.64
61292;BME280;47165;42.664;23.368;2023-06-19T00:36:11;95074.59;;;20.29;55.18
61292;BME280;47165;42.664;23.368;2023-06-19T00:38:38;95064.78;;;20.40;55.10
61292;BME280;47165;42.664;23.368;2023-06-19T00:41:04;95061.09;;;20.60;54.64
61292;BME280;47165;42.664;23.368;2023-06-19T00:43:30;95060.88;;;20.44;54.87
61292;BME280;47165;42.664;23.368;2023-06-19T00:45:57;95062.59;;;20.25;55.13
61292;BME280;47165;42.664;23.368;2023-06-19T00:48:23;95060.97;;;20.24;55.34
61292;BME280;47165;42.664;23.368;2023-06-19T00:50:50;95059.50;;;20.30;55.45
61292;BME280;47165;42.664;23.368;2023-06-19T00:53:15;95065.25;;;20.25;54.79
61292;BME280;47165;42.664;23.368;2023-06-19T00:55:41;95056.44;;;20.35;54.86
61292;BME280;47165;42.664;23.368;2023-06-19T00:58:09;95062.59;;;20.25;55.54
61292;BME280;47165;42.664;23.368;2023-06-19T01:00:34;95049.66;;;20.22;55.25
61292;BME280;47165;42.664;23.368;2023-06-19T01:03:00;95048.69;;;20.14;55.73
61292;BME280;47165;42.664;23.368;2023-06-19T01:05:25;95048.31;;;20.08;55.75
61292;BME280;47165;42.664;23.368;2023-06-19T01:08:04;95039.75;;;20.24;55.65
61292;BME280;47165;42.664;23.368;2023-06-19T01:10:41;95047.59;;;20.44;55.38
61292;BME280;47165;42.664;23.368;2023-06-19T01:15:43;95033.66;;;20.42;54.71
61292;BME280;47165;42.664;23.368;2023-06-19T01:18:09;95035.44;;;20.51;55.14
61292;BME280;47165;42.664;23.368;2023-06-19T01:20:38;95042.13;;;20.55;55.20
61292;BME280;47165;42.664;23.368;2023-06-19T01:23:10;95041.56;;;20.61;54.62
61292;BME280;47165;42.664;23.368;2023-06-19T01:25:36;95040.56;;;20.62;54.87
61292;BME280;47165;42.664;23.368;2023-06-19T01:28:07;95040.97;;;20.67;54.31
61292;BME280;47165;42.664;23.368;2023-06-19T01:30:36;95040.09;;;20.67;54.60
61292;BME280;47165;42.664;23.368;2023-06-19T01:35:43;95043.91;;;20.64;54.50
61292;BME280;47165;42.664;23.368;2023-06-19T01:38:11;95038.47;;;20.56;54.37
61292;BME280;47165;42.664;23.368;2023-06-19T01:40:38;95040.16;;;20.57;54.37
61292;BME280;47165;42.664;23.368;2023-06-19T01:43:05;95052.44;;;20.58;53.86
61292;BME280;47165;42.664;23.368;2023-06-19T01:45:31;95054.84;;;20.52;54.41
61292;BME280;47165;42.664;23.368;2023-06-19T01:47:57;95060.81;;;20.54;54.81
61292;BME280;47165;42.664;23.368;2023-06-19T01:50:24;95058.63;;;20.49;55.15
61292;BME280;47165;42.664;23.368;2023-06-19T01:52:50;95059.59;;;20.48;55.32
61292;BME280;47165;42.664;23.368;2023-06-19T01:55:16;95058.66;;;20.39;55.60
61292;BME280;47165;42.664;23.368;2023-06-19T01:57:41;95066.47;;;20.41;55.88
61292;BME280;47165;42.664;23.368;2023-06-19T02:00:07;95058.94;;;20.36;55.96
61292;BME280;47165;42.664;23.368;2023-06-19T02:02:35;95065.00;;;20.28;56.48
61292;BME280;47165;42.664;23.368;2023-06-19T02:05:01;95063.31;;;20.27;56.37
61292;BME280;47165;42.664;23.368;2023-06-19T02:07:26;95072.09;;;20.28;56.51
61292;BME280;47165;42.664;23.368;2023-06-19T02:09:52;95055.81;;;20.13;57.11
61292;BME280;47165;42.664;23.368;2023-06-19T02:12:17;95070.31;;;20.19;56.61
61292;BME280;47165;42.664;23.368;2023-06-19T02:14:43;95061.53;;;20.18;56.55
61292;BME280;47165;42.664;23.368;2023-06-19T02:17:08;95066.97;;;20.17;56.77
61292;BME280;47165;42.664;23.368;2023-06-19T02:19:34;95078.28;;;20.09;56.31
61292;BME280;47165;42.664;23.368;2023-06-19T02:21:59;95073.06;;;19.80;56.92
61292;BME280;47165;42.664;23.368;2023-06-19T02:24:24;95075.84;;;19.88;57.03
61292;BME280;47165;42.664;23.368;2023-06-19T02:26:50;95081.00;;;19.89;58.73
61292;BME280;47165;42.664;23.368;2023-06-19T02:29:16;95076.41;;;19.92;57.63
61292;BME280;47165;42.664;23.368;2023-06-19T02:31:41;95081.41;;;19.95;57.33
61292;BME280;47165;42.664;23.368;2023-06-19T02:34:08;95078.06;;;19.93;57.24
61292;BME280;47165;42.664;23.368;2023-06-19T02:36:34;95082.41;;;19.84;59.46
61292;BME280;47165;42.664;23.368;2023-06-19T02:39:01;95083.50;;;19.23;59.25
61292;BME280;47165;42.664;23.368;2023-06-19T02:41:27;95090.59;;;19.42;59.26
61292;BME280;47165;42.664;23.368;2023-06-19T02:43:52;95098.03;;;19.38;59.37
61292;BME280;47165;42.664;23.368;2023-06-19T02:46:17;95088.94;;;19.41;59.72
61292;BME280;47165;42.664;23.368;2023-06-19T02:48:43;95096.75;;;19.42;60.12
61292;BME280;47165;42.664;23.368;2023-06-19T02:51:08;95095.63;;;19.35;59.85
61292;BME280;47165;42.664;23.368;2023-06-19T02:53:34;95090.88;;;19.29;60.39
61292;BME280;47165;42.664;23.368;2023-06-19T02:55:59;95088.69;;;19.34;60.78
61292;BME280;47165;42.664;23.368;2023-06-19T02:58:25;95091.19;;;19.26;60.89
61292;BME280;47165;42.664;23.368;2023-06-19T03:00:52;95098.13;;;19.27;60.78
61292;BME280;47165;42.664;23.368;2023-06-19T03:03:17;95091.44;;;19.23;61.06
61292;BME280;47165;42.664;23.368;2023-06-19T03:05:43;95093.13;;;19.24;61.58
61292;BME280;47165;42.664;23.368;2023-06-19T03:08:08;95084.34;;;19.14;61.37
61292;BME280;47165;42.664;23.368;2023-06-19T03:10:33;95083.91;;;19.08;62.32
61292;BME280;47165;42.664;23.368;2023-06-19T03:12:59;95098.50;;;19.03;63.17
61292;BME280;47165;42.664;23.368;2023-06-19T03:15:25;95104.38;;;19.06;62.88
61292;BME280;47165;42.664;23.368;2023-06-19T03:17:53;95098.97;;;19.08;62.99
61292;BME280;47165;42.664;23.368;2023-06-19T03:22:43;95098.09;;;18.98;63.31
61292;BME280;47165;42.664;23.368;2023-06-19T03:25:09;95087.44;;;18.68;63.05
61292;BME280;47165;42.664;23.368;2023-06-19T03:27:35;95087.44;;;18.78;63.41
61292;BME280;47165;42.664;23.368;2023-06-19T03:30:02;95098.91;;;18.79;63.15
61292;BME280;47165;42.664;23.368;2023-06-19T03:32:31;95101.78;;;18.76;63.39
61292;BME280;47165;42.664;23.368;2023-06-19T03:34:57;95088.66;;;18.74;63.23
61292;BME280;47165;42.664;23.368;2023-06-19T03:37:22;95096.41;;;18.87;62.99
61292;BME280;47165;42.664;23.368;2023-06-19T03:39:48;95095.44;;;18.88;63.02
61292;BME280;47165;42.664;23.368;2023-06-19T03:42:13;95099.06;;;18.87;63.51
61292;BME280;47165;42.664;23.368;2023-06-19T03:44:38;95093.19;;;18.83;64.48
61292;BME280;47165;42.664;23.368;2023-06-19T03:47:05;95091.13;;;18.87;64.65
61292;BME280;47165;42.664;23.368;2023-06-19T03:49:31;95091.88;;;18.78;64.76
61292;BME280;47165;42.664;23.368;2023-06-19T03:51:56;95096.97;;;18.81;64.96
61292;BME280;47165;42.664;23.368;2023-06-19T03:54:22;95082.44;;;18.75;65.01
61292;BME280;47165;42.664;23.368;2023-06-19T03:56:47;95088.16;;;18.80;64.62
61292;BME280;47165;42.664;23.368;2023-06-19T03:59:13;95093.47;;;18.90;63.96
61292;BME280;47165;42.664;23.368;2023-06-19T04:01:38;95090.13;;;18.88;63.80
61292;BME280;47165;42.664;23.368;2023-06-19T04:04:04;95094.75;;;18.96;64.12
61292;BME280;47165;42.664;23.368;2023-06-19T04:06:29;95096.41;;;18.97;63.92
61292;BME280;47165;42.664;23.368;2023-06-19T04:08:55;95086.69;;;18.97;64.11
61292;BME280;47165;42.664;23.368;2023-06-19T04:11:20;95086.97;;;19.04;63.75
61292;BME280;47165;42.664;23.368;2023-06-19T04:13:46;95093.25;;;19.13;63.39
61292;BME280;47165;42.664;23.368;2023-06-19T04:16:12;95088.94;;;19.12;62.86
61292;BME280;47165;42.664;23.368;2023-06-19T04:18:38;95089.78;;;19.22;62.56
61292;BME280;47165;42.664;23.368;2023-06-19T04:21:03;95100.09;;;19.25;62.54
61292;BME280;47165;42.664;23.368;2023-06-19T04:23:29;95086.72;;;19.26;62.31
61292;BME280;47165;42.664;23.368;2023-06-19T04:25:54;95087.56;;;19.37;62.13
61292;BME280;47165;42.664;23.368;2023-06-19T04:28:19;95091.72;;;19.39;61.91
61292;BME280;47165;42.664;23.368;2023-06-19T04:30:45;95081.13;;;19.29;61.64
61292;BME280;47165;42.664;23.368;2023-06-19T04:33:10;95089.22;;;19.28;61.84
61292;BME280;47165;42.664;23.368;2023-06-19T04:35:35;95095.50;;;19.27;62.19
61292;BME280;47165;42.664;23.368;2023-06-19T04:38:05;95090.91;;;19.39;62.04
61292;BME280;47165;42.664;23.368;2023-06-19T04:40:31;95083.78;;;19.39;62.19
61292;BME280;47165;42.664;23.368;2023-06-19T04:42:59;95091.44;;;19.52;61.62
61292;BME280;47165;42.664;23.368;2023-06-19T04:45:24;95091.88;;;19.57;62.48
61292;BME280;47165;42.664;23.368;2023-06-19T04:47:50;95092.56;;;19.59;62.50
61292;BME280;47165;42.664;23.368;2023-06-19T04:50:15;95095.78;;;19.63;62.49
61292;BME280;47165;42.664;23.368;2023-06-19T04:52:41;95082.81;;;19.60;62.36
61292;BME280;47165;42.664;23.368;2023-06-19T04:55:07;95094.09;;;19.62;62.35
61292;BME280;47165;42.664;23.368;2023-06-19T04:57:37;95090.63;;;19.61;62.83
61292;BME280;47165;42.664;23.368;2023-06-19T05:00:04;95090.06;;;19.67;63.11
61292;BME280;47165;42.664;23.368;2023-06-19T05:02:31;95093.41;;;19.69;61.95
61292;BME280;47165;42.664;23.368;2023-06-19T05:04:56;95086.28;;;19.70;62.06
61292;BME280;47165;42.664;23.368;2023-06-19T05:07:22;95083.41;;;19.73;62.48
61292;BME280;47165;42.664;23.368;2023-06-19T05:09:47;95075.03;;;19.78;62.77
61292;BME280;47165;42.664;23.368;2023-06-19T05:12:13;95088.81;;;19.81;60.23
61292;BME280;47165;42.664;23.368;2023-06-19T05:14:39;95083.34;;;19.83;60.62
61292;BME280;47165;42.664;23.368;2023-06-19T05:17:05;95082.78;;;19.01;63.49
61292;BME280;47165;42.664;23.368;2023-06-19T05:19:30;95083.22;;;19.45;62.84
61292;BME280;47165;42.664;23.368;2023-06-19T05:21:55;95086.09;;;20.10;57.27
61292;BME280;47165;42.664;23.368;2023-06-19T05:24:21;95094.16;;;20.28;56.38
61292;BME280;47165;42.664;23.368;2023-06-19T05:26:46;95087.38;;;20.44;55.70
61292;BME280;47165;42.664;23.368;2023-06-19T05:29:12;95095.44;;;20.62;55.46
61292;BME280;47165;42.664;23.368;2023-06-19T05:31:37;95096.69;;;20.67;53.91
61292;BME280;47165;42.664;23.368;2023-06-19T05:34:03;95109.41;;;20.54;54.38
61292;BME280;47165;42.664;23.368;2023-06-19T05:36:28;95111.72;;;20.29;54.93
61292;BME280;47165;42.664;23.368;2023-06-19T05:38:54;95121.25;;;20.22;55.20
61292;BME280;47165;42.664;23.368;2023-06-19T05:43:44;95110.22;;;20.17;54.51
61292;BME280;47165;42.664;23.368;2023-06-19T05:46:09;95109.97;;;20.10;55.18
61292;BME280;47165;42.664;23.368;2023-06-19T05:48:36;95118.47;;;20.14;55.35
61292;BME280;47165;42.664;23.368;2023-06-19T05:51:01;95113.44;;;20.21;54.82
61292;BME280;47165;42.664;23.368;2023-06-19T05:53:26;95115.63;;;20.25;54.71
61292;BME280;47165;42.664;23.368;2023-06-19T05:55:52;95104.44;;;20.41;54.69
61292;BME280;47165;42.664;23.368;2023-06-19T05:58:17;95116.13;;;20.48;55.01
61292;BME280;47165;42.664;23.368;2023-06-19T06:00:43;95113.69;;;20.27;55.14
61292;BME280;47165;42.664;23.368;2023-06-19T06:03:09;95121.28;;;20.50;53.77
61292;BME280;47165;42.664;23.368;2023-06-19T06:05:34;95122.75;;;20.35;54.51
61292;BME280;47165;42.664;23.368;2023-06-19T06:08:01;95121.16;;;20.52;54.19
61292;BME280;47165;42.664;23.368;2023-06-19T06:10:27;95122.75;;;20.82;53.09
61292;BME280;47165;42.664;23.368;2023-06-19T06:12:52;95113.19;;;20.89;53.28
61292;BME280;47165;42.664;23.368;2023-06-19T06:15:18;95122.84;;;20.90;53.32
61292;BME280;47165;42.664;23.368;2023-06-19T06:17:43;95129.38;;;20.58;52.78
61292;BME280;47165;42.664;23.368;2023-06-19T06:20:09;95126.84;;;20.57;52.74
61292;BME280;47165;42.664;23.368;2023-06-19T06:22:38;95113.81;;;20.73;52.90
61292;BME280;47165;42.664;23.368;2023-06-19T06:25:05;95121.00;;;20.53;53.25
61292;BME280;47165;42.664;23.368;2023-06-19T06:27:30;95125.09;;;20.85;53.42
61292;BME280;47165;42.664;23.368;2023-06-19T06:29:55;95120.78;;;21.02;52.72
61292;BME280;47165;42.664;23.368;2023-06-19T06:32:21;95114.47;;;21.13;52.38
61292;BME280;47165;42.664;23.368;2023-06-19T06:34:46;95122.59;;;21.29;52.97
61292;BME280;47165;42.664;23.368;2023-06-19T06:37:12;95126.38;;;21.26;52.00
61292;BME280;47165;42.664;23.368;2023-06-19T06:39:38;95113.56;;;21.40;52.21
61292;BME280;47165;42.664;23.368;2023-06-19T06:42:04;95126.91;;;21.58;51.33
61292;BME280;47165;42.664;23.368;2023-06-19T06:44:29;95123.72;;;21.54;50.72
61292;BME280;47165;42.664;23.368;2023-06-19T06:46:55;95128.78;;;21.47;51.15
61292;BME280;47165;42.664;23.368;2023-06-19T06:49:20;95113.97;;;21.45;51.26
61292;BME280;47165;42.664;23.368;2023-06-19T06:51:47;95130.59;;;21.65;50.46
61292;BME280;47165;42.664;23.368;2023-06-19T06:54:12;95134.16;;;21.74;50.34
61292;BME280;47165;42.664;23.368;2023-06-19T06:56:38;95134.16;;;21.74;49.95
61292;BME280;47165;42.664;23.368;2023-06-19T06:59:04;95126.38;;;21.72;50.35
61292;BME280;47165;42.664;23.368;2023-06-19T07:01:29;95128.06;;;21.99;49.67
61292;BME280;47165;42.664;23.368;2023-06-19T07:03:54;95125.09;;;22.02;48.81
61292;BME280;47165;42.664;23.368;2023-06-19T07:06:20;95121.31;;;22.05;49.50
61292;BME280;47165;42.664;23.368;2023-06-19T07:08:45;95120.41;;;21.96;48.76
61292;BME280;47165;42.664;23.368;2023-06-19T07:11:13;95128.53;;;21.95;48.80
61292;BME280;47165;42.664;23.368;2023-06-19T07:13:38;95125.34;;;21.91;49.15
61292;BME280;47165;42.664;23.368;2023-06-19T07:16:05;95125.63;;;22.06;48.18
61292;BME280;47165;42.664;23.368;2023-06-19T07:18:30;95133.72;;;22.22;47.64
61292;BME280;47165;42.664;23.368;2023-06-19T07:20:56;95119.00;;;22.10;47.86
61292;BME280;47165;42.664;23.368;2023-06-19T07:23:21;95125.75;;;22.22;46.82
61292;BME280;47165;42.664;23.368;2023-06-19T07:25:47;95130.38;;;22.20;47.17
61292;BME280;47165;42.664;23.368;2023-06-19T07:28:13;95122.44;;;22.02;46.40
61292;BME280;47165;42.664;23.368;2023-06-19T07:30:39;95118.59;;;22.75;45.80
61292;BME280;47165;42.664;23.368;2023-06-19T07:33:04;95128.94;;;23.21;44.49
61292;BME280;47165;42.664;23.368;2023-06-19T07:35:30;95121.28;;;23.18;44.32
61292;BME280;47165;42.664;23.368;2023-06-19T07:37:55;95127.06;;;22.70;44.04
61292;BME280;47165;42.664;23.368;2023-06-19T07:40:21;95121.78;;;22.79;45.33
61292;BME280;47165;42.664;23.368;2023-06-19T07:42:46;95132.47;;;22.87;45.52
61292;BME280;47165;42.664;23.368;2023-06-19T07:45:12;95133.22;;;22.71;45.46
61292;BME280;47165;42.664;23.368;2023-06-19T07:47:38;95126.06;;;22.72;45.61
61292;BME280;47165;42.664;23.368;2023-06-19T07:50:04;95130.66;;;22.61;45.19
61292;BME280;47165;42.664;23.368;2023-06-19T07:52:29;95124.41;;;22.70;44.97
61292;BME280;47165;42.664;23.368;2023-06-19T07:54:56;95129.88;;;22.69;45.36
61292;BME280;47165;42.664;23.368;2023-06-19T07:57:24;95132.28;;;22.88;45.41
61292;BME280;47165;42.664;23.368;2023-06-19T07:59:50;95131.16;;;22.57;45.19
61292;BME280;47165;42.664;23.368;2023-06-19T08:02:16;95124.38;;;22.36;46.03
61292;BME280;47165;42.664;23.368;2023-06-19T08:04:41;95131.19;;;22.65;44.53
61292;BME280;47165;42.664;23.368;2023-06-19T08:07:07;95130.81;;;22.60;44.80
61292;BME280;47165;42.664;23.368;2023-06-19T08:09:33;95123.34;;;22.63;45.12
61292;BME280;47165;42.664;23.368;2023-06-19T08:11:58;95126.69;;;23.00;45.57
61292;BME280;47165;42.664;23.368;2023-06-19T08:14:24;95128.25;;;23.10;45.05
61292;BME280;47165;42.664;23.368;2023-06-19T08:16:49;95128.63;;;23.24;44.09
61292;BME280;47165;42.664;23.368;2023-06-19T08:19:14;95122.63;;;23.22;43.92
61292;BME280;47165;42.664;23.368;2023-06-19T08:21:40;95128.81;;;23.30;43.31
61292;BME280;47165;42.664;23.368;2023-06-19T08:24:06;95130.31;;;23.33;41.61
61292;BME280;47165;42.664;23.368;2023-06-19T08:26:31;95119.75;;;23.15;41.06
61292;BME280;47165;42.664;23.368;2023-06-19T08:28:57;95126.81;;;23.24;42.54
61292;BME280;47165;42.664;23.368;2023-06-19T08:31:22;95132.31;;;23.39;42.58
61292;BME280;47165;42.664;23.368;2023-06-19T08:33:54;95128.03;;;23.55;42.14
61292;BME280;47165;42.664;23.368;2023-06-19T08:38:45;95113.00;;;23.37;41.13
61292;BME280;47165;42.664;23.368;2023-06-19T08:41:12;95124.34;;;23.47;41.89
61292;BME280;47165;42.664;23.368;2023-06-19T08:43:37;95125.41;;;23.71;40.24
61292;BME280;47165;42.664;23.368;2023-06-19T08:46:10;95130.09;;;23.77;39.65
61292;BME280;47165;42.664;23.368;2023-06-19T08:48:36;95109.88;;;23.75;39.67
61292;BME280;47165;42.664;23.368;2023-06-19T08:51:03;95129.44;;;23.92;39.41
61292;BME280;47165;42.664;23.368;2023-06-19T08:53:31;95127.91;;;23.89;39.25
61292;BME280;47165;42.664;23.368;2023-06-19T08:55:57;95129.75;;;23.88;38.73
61292;BME280;47165;42.664;23.368;2023-06-19T08:58:23;95102.44;;;23.86;38.98
61292;BME280;47165;42.664;23.368;2023-06-19T09:00:49;95117.09;;;24.07;38.91
61292;BME280;47165;42.664;23.368;2023-06-19T09:05:44;95131.56;;;24.45;39.84
61292;BME280;47165;42.664;23.368;2023-06-19T09:08:15;95124.06;;;24.41;39.30
61292;BME280;47165;42.664;23.368;2023-06-19T09:11:03;95140.09;;;24.41;41.22
61292;BME280;47165;42.664;23.368;2023-06-19T09:13:31;95114.56;;;24.30;38.92
61292;BME280;47165;42.664;23.368;2023-06-19T09:16:07;95101.59;;;24.10;39.41
61292;BME280;47165;42.664;23.368;2023-06-19T09:18:47;95115.59;;;24.21;38.69
61292;BME280;47165;42.664;23.368;2023-06-19T09:23:45;95116.88;;;24.58;38.10
61292;BME280;47165;42.664;23.368;2023-06-19T09:26:10;95119.16;;;24.69;38.00
61292;BME280;47165;42.664;23.368;2023-06-19T09:28:41;95121.72;;;24.46;37.11
61292;BME280;47165;42.664;23.368;2023-06-19T09:31:09;95117.69;;;24.66;38.06
61292;BME280;47165;42.664;23.368;2023-06-19T09:33:35;95103.94;;;24.86;38.37
61292;BME280;47165;42.664;23.368;2023-06-19T09:36:03;95112.63;;;24.88;36.75
61292;BME280;47165;42.664;23.368;2023-06-19T09:38:30;95101.28;;;24.86;37.39
61292;BME280;47165;42.664;23.368;2023-06-19T09:40:57;95108.78;;;24.82;37.13
61292;BME280;47165;42.664;23.368;2023-06-19T09:43:32;95106.34;;;25.04;36.52
61292;BME280;47165;42.664;23.368;2023-06-19T09:45:58;95102.31;;;25.08;35.69
61292;BME280;47165;42.664;23.368;2023-06-19T09:48:30;95102.53;;;25.06;36.67
61292;BME280;47165;42.664;23.368;2023-06-19T09:51:12;95103.19;;;25.08;35.73
61292;BME280;47165;42.664;23.368;2023-06-19T09:53:44;95101.81;;;25.13;35.74
61292;BME280;47165;42.664;23.368;2023-06-19T09:56:11;95107.31;;;24.80;36.43
61292;BME280;47165;42.664;23.368;2023-06-19T09:58:37;95101.38;;;24.45;35.97
61292;BME280;47165;42.664;23.368;2023-06-19T10:01:04;95107.66;;;24.68;37.27
61292;BME280;47165;42.664;23.368;2023-06-19T10:03:32;95104.91;;;24.93;37.41
61292;BME280;47165;42.664;23.368;2023-06-19T10:06:02;95104.63;;;25.19;35.50
61292;BME280;47165;42.664;23.368;2023-06-19T10:08:30;95095.06;;;25.33;33.84
61292;BME280;47165;42.664;23.368;2023-06-19T10:10:56;95097.28;;;25.21;35.56
61292;BME280;47165;42.664;23.368;2023-06-19T10:13:34;95092.34;;;25.41;35.15
61292;BME280;47165;42.664;23.368;2023-06-19T10:16:02;95085.78;;;25.21;35.62
61292;BME280;47165;42.664;23.368;2023-06-19T10:18:27;95087.81;;;25.42;35.47
61292;BME280;47165;42.664;23.368;2023-06-19T10:20:56;95084.44;;;25.17;34.23
61292;BME280;47165;42.664;23.368;2023-06-19T10:23:23;95087.81;;;25.42;34.51
61292;BME280;47165;42.664;23.368;2023-06-19T10:30:44;95080.56;;;25.50;34.94
61292;BME280;47165;42.664;23.368;2023-06-19T10:33:10;95072.59;;;25.65;34.63
61292;BME280;47165;42.664;23.368;2023-06-19T10:35:40;95071.44;;;25.91;34.65
61292;BME280;47165;42.664;23.368;2023-06-19T10:38:07;95069.63;;;26.06;36.18
61292;BME280;47165;42.664;23.368;2023-06-19T10:40:32;95070.03;;;26.33;36.14
61292;BME280;47165;42.664;23.368;2023-06-19T10:42:58;95086.72;;;26.20;33.79
61292;BME280;47165;42.664;23.368;2023-06-19T10:45:23;95062.88;;;25.73;33.52
61292;BME280;47165;42.664;23.368;2023-06-19T10:47:54;95061.09;;;26.26;35.01
61292;BME280;47165;42.664;23.368;2023-06-19T10:52:45;95070.91;;;26.63;34.95
61292;BME280;47165;42.664;23.368;2023-06-19T10:55:12;95076.72;;;26.67;34.06
61292;BME280;47165;42.664;23.368;2023-06-19T10:57:38;95065.16;;;26.96;34.55
61292;BME280;47165;42.664;23.368;2023-06-19T11:00:05;95059.00;;;26.81;33.05
61292;BME280;47165;42.664;23.368;2023-06-19T11:02:43;95063.63;;;26.57;33.76
61292;BME280;47165;42.664;23.368;2023-06-19T11:05:11;95058.88;;;26.29;34.61
61292;BME280;47165;42.664;23.368;2023-06-19T11:07:37;95061.81;;;26.49;35.37
61292;BME280;47165;42.664;23.368;2023-06-19T11:10:04;95053.59;;;26.21;33.03
61292;BME280;47165;42.664;23.368;2023-06-19T11:12:31;95047.41;;;26.21;34.20
61292;BME280;47165;42.664;23.368;2023-06-19T11:14:57;95055.47;;;26.50;34.63
61292;BME280;47165;42.664;23.368;2023-06-19T11:17:23;95064.88;;;26.46;34.63
61292;BME280;47165;42.664;23.368;2023-06-19T11:19:52;95047.78;;;26.18;35.16
61292;BME280;47165;42.664;23.368;2023-06-19T11:22:17;95059.69;;;26.45;35.72
61292;BME280;47165;42.664;23.368;2023-06-19T11:24:44;95063.13;;;26.39;35.80
61292;BME280;47165;42.664;23.368;2023-06-19T11:29:44;95055.00;;;26.47;37.03
61292;BME280;47165;42.664;23.368;2023-06-19T11:32:13;95048.44;;;26.94;37.00
61292;BME280;47165;42.664;23.368;2023-06-19T11:34:39;95060.19;;;27.66;34.88
61292;BME280;47165;42.664;23.368;2023-06-19T11:37:18;95057.03;;;28.34;33.84
61292;BME280;47165;42.664;23.368;2023-06-19T11:39:44;95044.69;;;28.11;35.10
61292;BME280;47165;42.664;23.368;2023-06-19T11:42:10;95046.31;;;27.62;34.00
61292;BME280;47165;42.664;23.368;2023-06-19T11:44:52;95041.00;;;27.26;34.57
61292;BME280;47165;42.664;23.368;2023-06-19T11:47:18;95054.72;;;27.01;35.34
61292;BME280;47165;42.664;23.368;2023-06-19T11:49:47;95044.38;;;26.24;36.77
61292;BME280;47165;42.664;23.368;2023-06-19T11:52:13;95040.47;;;26.12;37.23
61292;BME280;47165;42.664;23.368;2023-06-19T11:54:38;95054.31;;;27.04;36.89
61292;BME280;47165;42.664;23.368;2023-06-19T11:57:04;95040.06;;;27.19;36.63
61292;BME280;47165;42.664;23.368;2023-06-19T11:59:30;95035.09;;;26.64;36.58
61292;BME280;47165;42.664;23.368;2023-06-19T12:01:55;95031.06;;;26.45;36.76
61292;BME280;47165;42.664;23.368;2023-06-19T12:04:23;95042.28;;;26.64;38.30
61292;BME280;47165;42.664;23.368;2023-06-19T12:06:49;95039.16;;;27.12;37.36
61292;BME280;47165;42.664;23.368;2023-06-19T12:09:14;95034.25;;;27.73;36.54
61292;BME280;47165;42.664;23.368;2023-06-19T12:11:40;95032.34;;;27.67;36.45
61292;BME280;47165;42.664;23.368;2023-06-19T12:14:05;95031.09;;;27.48;37.33
61292;BME280;47165;42.664;23.368;2023-06-19T12:16:31;95035.06;;;27.74;37.71
61292;BME280;47165;42.664;23.368;2023-06-19T12:18:56;95034.75;;;27.62;36.36
61292;BME280;47165;42.664;23.368;2023-06-19T12:21:22;95035.28;;;27.51;35.69
61292;BME280;47165;42.664;23.368;2023-06-19T12:23:48;95037.47;;;26.89;36.79
61292;BME280;47165;42.664;23.368;2023-06-19T12:26:13;95030.28;;;26.75;37.70
61292;BME280;47165;42.664;23.368;2023-06-19T12:28:38;95029.41;;;26.74;37.74
61292;BME280;47165;42.664;23.368;2023-06-19T12:31:04;95024.56;;;26.63;37.20
61292;BME280;47165;42.664;23.368;2023-06-19T12:33:30;95025.44;;;26.70;37.87
61292;BME280;47165;42.664;23.368;2023-06-19T12:35:56;95026.31;;;27.07;38.31
61292;BME280;47165;42.664;23.368;2023-06-19T12:38:22;95029.47;;;27.47;38.51
61292;BME280;47165;42.664;23.368;2023-06-19T12:40:47;95021.53;;;28.38;36.44
61292;BME280;47165;42.664;23.368;2023-06-19T12:43:12;95007.13;;;28.46;35.90
61292;BME280;47165;42.664;23.368;2023-06-19T12:45:38;95010.50;;;29.03;34.18
61292;BME280;47165;42.664;23.368;2023-06-19T12:48:03;95012.94;;;28.91;34.25
61292;BME280;47165;42.664;23.368;2023-06-19T12:50:29;95005.06;;;28.89;33.70
61292;BME280;47165;42.664;23.368;2023-06-19T12:52:54;95019.00;;;28.58;35.25
61292;BME280;47165;42.664;23.368;2023-06-19T12:57:45;95017.81;;;29.16;33.91
61292;BME280;47165;42.664;23.368;2023-06-19T13:00:12;95007.56;;;28.84;34.59
61292;BME280;47165;42.664;23.368;2023-06-19T13:02:41;95021.19;;;28.48;33.25
61292;BME280;47165;42.664;23.368;2023-06-19T13:05:08;95030.22;;;28.40;33.52
61292;BME280;47165;42.664;23.368;2023-06-19T13:07:34;95022.84;;;28.84;31.96
61292;BME280;47165;42.664;23.368;2023-06-19T13:09:59;95021.81;;;28.85;33.38
61292;BME280;47165;42.664;23.368;2023-06-19T13:12:25;95027.59;;;28.47;32.91
61292;BME280;47165;42.664;23.368;2023-06-19T13:14:50;95014.63;;;27.94;33.60
61292;BME280;47165;42.664;23.368;2023-06-19T13:17:16;95010.56;;;28.05;33.95
61292;BME280;47165;42.664;23.368;2023-06-19T13:19:41;94999.25;;;28.44;32.67
61292;BME280;47165;42.664;23.368;2023-06-19T13:22:07;95007.00;;;28.54;33.59